Portada
METAR-TAF:

METAR-TAF

Aeroports :

Tarakan, Indonèsia

latitud: 03-19-36N, longitud: 117-33-56E, altitud: 6 m

METAR: manca

Hora: 04:03 (21:03 UTC)

Pronòstic

L'informe es va fer fa 16 hores i 3 minuts, a les 05:00 UTC
Pronòstic vàlid del 19 a les 06 UTC al 19 a les 18 UTC
Vent 6 kt del Sud
Visibilitat 10 km o més
Núvols disperses a una alçada de 1500 ft

TAF: WAQQ 190500Z 1906/1918 17006KT 9999 SCT015

Observacions i pronòstics meteorològics de més de 4000 aeroports (METAR i TAF).

Les estacions disponibles són els punts grocs i vermells al mapa.

Posi el ratolí al punt desitjat per veure el nom de l'estació.

Feu clic per veure les observacions i els pronòstics meteorològics.

Per canviar el mapa: feu clic els botons verds amb una creu de color negre per apropar; al botó verd amb un guió per allunyar la imatge; o en les fletxes verdes per a mapes adjacents.


METAR-TAF: